PWSweather.com
Personal Weather Stations
Station Observations
OBSERWACJEMETEO
Skórowo, SkorowoPL 76-230

SkórowoSkorowoPL 76-230

Lat: 54.5030556, Lon: 17.5277777

Elevation: 77

Station Type: WH2080

http://obserwacjemeteo.eu/

High Low Average
Temperature 72.7°F22.6°C 46.9°F8.3°C 57.6°F14.2°C
Dew Point 55.4°F13.0°C 40.3°F4.6°C 47.0°F8.3°C
Winds 6.9 mph 11.1 kmh 0.7 mph 1.1 kmh 3.0 mph SE4.8 kmh SE
Wind Gusts 14.5 mph23.3 kmh 3.1 mph5.0 kmh 6.0 mph9.7 kmh
Humidity 89% 31% 70%
Pressure 30.29 in1025.7 mb 29.86 in1011.2 mb -
Precipitation 0.06 in1.5 mm - -
Hour Temp Dew Point Humidity Winds Wind Gusts Pressure Precip Precip Rate Daily Precip Total
12:00 AM 47.5°F8.6°C 44.4°F6.9°C 89% 1.6 mph ESE2.6 kmh ESE 3.1 mph5.0 kmh 30.29 in1025.7 mb 0.00 in0.0 mm 0.00 in0.0 mm 0.00 in0.0 mm
12:10 AM 47.7°F8.7°C 44.6°F7.0°C 89% 1.6 mph E2.6 kmh E 3.8 mph6.1 kmh 30.27 in1025.1 mb 0.00 in0.0 mm 0.00 in0.0 mm 0.00 in0.0 mm
12:20 AM 47.8°F8.8°C 44.8°F7.1°C 89% 2.2 mph E3.5 kmh E 3.8 mph6.1 kmh 30.27 in1025.1 mb 0.00 in0.0 mm 0.00 in0.0 mm 0.00 in0.0 mm
12:30 AM 47.8°F8.8°C 44.5°F6.9°C 88% 2.2 mph E3.5 kmh E 3.8 mph6.1 kmh 30.27 in1025.1 mb 0.00 in0.0 mm 0.00 in0.0 mm 0.00 in0.0 mm
12:40 AM 47.8°F8.8°C 44.2°F6.8°C 87% 2.2 mph ESE3.5 kmh ESE 3.8 mph6.1 kmh 30.26 in1024.7 mb 0.00 in0.0 mm 0.00 in0.0 mm 0.00 in0.0 mm
12:50 AM 47.8°F8.8°C 44.2°F6.8°C 87% 1.6 mph ENE2.6 kmh ENE 3.8 mph6.1 kmh 30.26 in1024.7 mb 0.00 in0.0 mm 0.00 in0.0 mm 0.00 in0.0 mm
01:00 AM 47.8°F8.8°C 44.2°F6.8°C 87% 1.6 mph E2.6 kmh E 3.1 mph5.0 kmh 30.26 in1024.7 mb 0.00 in0.0 mm 0.00 in0.0 mm 0.00 in0.0 mm
01:10 AM 47.8°F8.8°C 43.9°F6.6°C 86% 3.1 mph SE5.0 kmh SE 3.8 mph6.1 kmh 30.25 in1024.4 mb 0.00 in0.0 mm 0.00 in0.0 mm 0.00 in0.0 mm
01:20 AM 47.8°F8.8°C 43.9°F6.6°C 86% 2.2 mph ESE3.5 kmh ESE 4.5 mph7.2 kmh 30.25 in1024.4 mb 0.00 in0.0 mm 0.00 in0.0 mm 0.00 in0.0 mm
01:30 AM 47.7°F8.7°C 43.7°F6.5°C 86% 3.1 mph SE5.0 kmh SE 3.8 mph6.1 kmh 30.24 in1024.0 mb 0.00 in0.0 mm 0.00 in0.0 mm 0.00 in0.0 mm
01:40 AM 47.8°F8.8°C 43.9°F6.6°C 86% 2.2 mph E3.5 kmh E 3.8 mph6.1 kmh 30.24 in1024.0 mb 0.00 in0.0 mm 0.00 in0.0 mm 0.00 in0.0 mm
01:50 AM 47.7°F8.7°C 43.7°F6.5°C 86% 2.2 mph ENE3.5 kmh ENE 3.8 mph6.1 kmh 30.25 in1024.4 mb 0.00 in0.0 mm 0.00 in0.0 mm 0.00 in0.0 mm
02:00 AM 47.5°F8.6°C 43.2°F6.2°C 85% 1.6 mph ESE2.6 kmh ESE 3.1 mph5.0 kmh 30.24 in1024.0 mb 0.00 in0.0 mm 0.00 in0.0 mm 0.00 in0.0 mm
02:10 AM 46.9°F8.3°C 42.7°F5.9°C 85% 1.6 mph E2.6 kmh E 3.1 mph5.0 kmh 30.23 in1023.7 mb 0.00 in0.0 mm 0.00 in0.0 mm 0.00 in0.0 mm
02:20 AM 46.9°F8.3°C 43.0°F6.1°C 86% 1.6 mph E2.6 kmh E 3.8 mph6.1 kmh 30.22 in1023.4 mb 0.00 in0.0 mm 0.00 in0.0 mm 0.00 in0.0 mm
02:30 AM 47.7°F8.7°C 44.0°F6.7°C 87% 2.2 mph E3.5 kmh E 3.8 mph6.1 kmh 30.22 in1023.4 mb 0.00 in0.0 mm 0.00 in0.0 mm 0.00 in0.0 mm
02:40 AM 48.2°F9.0°C 44.2°F6.8°C 86% 2.2 mph E3.5 kmh E 3.8 mph6.1 kmh 30.21 in1023.0 mb 0.00 in0.0 mm 0.00 in0.0 mm 0.00 in0.0 mm
02:50 AM 48.6°F9.2°C 44.3°F6.8°C 85% 1.6 mph E2.6 kmh E 3.8 mph6.1 kmh 30.20 in1022.7 mb 0.00 in0.0 mm 0.00 in0.0 mm 0.00 in0.0 mm
03:00 AM 48.6°F9.2°C 44.0°F6.7°C 84% 2.2 mph E3.5 kmh E 3.1 mph5.0 kmh 30.20 in1022.7 mb 0.00 in0.0 mm 0.00 in0.0 mm 0.00 in0.0 mm
03:10 AM 48.4°F9.1°C 43.5°F6.4°C 83% 1.6 mph E2.6 kmh E 3.8 mph6.1 kmh 30.20 in1022.7 mb 0.00 in0.0 mm 0.00 in0.0 mm 0.00 in0.0 mm
03:20 AM 48.4°F9.1°C 43.8°F6.6°C 84% 2.2 mph E3.5 kmh E 3.8 mph6.1 kmh 30.19 in1022.4 mb 0.00 in0.0 mm 0.00 in0.0 mm 0.00 in0.0 mm
03:30 AM 48.4°F9.1°C 43.8°F6.6°C 84% 2.2 mph E3.5 kmh E 3.8 mph6.1 kmh 30.19 in1022.4 mb 0.00 in0.0 mm 0.00 in0.0 mm 0.00 in0.0 mm
03:40 AM 48.4°F9.1°C 43.8°F6.6°C 84% 2.2 mph E3.5 kmh E 3.1 mph5.0 kmh 30.18 in1022.0 mb 0.00 in0.0 mm 0.00 in0.0 mm 0.00 in0.0 mm
03:50 AM 48.4°F9.1°C 43.8°F6.6°C 84% 2.2 mph E3.5 kmh E 5.4 mph8.7 kmh 30.18 in1022.0 mb 0.00 in0.0 mm 0.00 in0.0 mm 0.00 in0.0 mm
04:00 AM 48.6°F9.2°C 43.6°F6.4°C 83% 2.2 mph ENE3.5 kmh ENE 3.8 mph6.1 kmh 30.17 in1021.7 mb 0.00 in0.0 mm 0.00 in0.0 mm 0.00 in0.0 mm
04:10 AM 48.7°F9.3°C 43.8°F6.6°C 83% 2.2 mph E3.5 kmh E 3.8 mph6.1 kmh 30.16 in1021.3 mb 0.00 in0.0 mm 0.00 in0.0 mm 0.00 in0.0 mm
04:20 AM 49.1°F9.5°C 43.5°F6.4°C 81% 2.2 mph ENE3.5 kmh ENE 4.5 mph7.2 kmh 30.15 in1021.0 mb 0.00 in0.0 mm 0.00 in0.0 mm 0.00 in0.0 mm
04:30 AM 49.3°F9.6°C 43.4°F6.3°C 80% 2.2 mph ENE3.5 kmh ENE 5.4 mph8.7 kmh 30.13 in1020.3 mb 0.00 in0.0 mm 0.00 in0.0 mm 0.00 in0.0 mm
04:40 AM 49.6°F9.8°C 43.7°F6.5°C 80% 1.6 mph E2.6 kmh E 5.4 mph8.7 kmh 30.13 in1020.3 mb 0.00 in0.0 mm 0.00 in0.0 mm 0.00 in0.0 mm
04:50 AM 50.0°F10.0°C 43.4°F6.3°C 78% 3.1 mph ENE5.0 kmh ENE 4.5 mph7.2 kmh 30.12 in1020.0 mb 0.00 in0.0 mm 0.00 in0.0 mm 0.00 in0.0 mm
05:00 AM 50.4°F10.2°C 43.4°F6.3°C 77% 1.6 mph E2.6 kmh E 3.8 mph6.1 kmh 30.13 in1020.3 mb 0.00 in0.0 mm 0.00 in0.0 mm 0.00 in0.0 mm
05:10 AM 50.9°F10.5°C 43.3°F6.3°C 75% 2.2 mph SSE3.5 kmh SSE 3.8 mph6.1 kmh 30.12 in1020.0 mb 0.00 in0.0 mm 0.00 in0.0 mm 0.00 in0.0 mm
05:20 AM 51.1°F10.6°C 43.1°F6.2°C 74% 2.2 mph E3.5 kmh E 4.5 mph7.2 kmh 30.12 in1020.0 mb 0.00 in0.0 mm 0.00 in0.0 mm 0.00 in0.0 mm
05:30 AM 51.3°F10.7°C 42.9°F6.1°C 73% 2.2 mph ENE3.5 kmh ENE 4.5 mph7.2 kmh 30.11 in1019.6 mb 0.00 in0.0 mm 0.00 in0.0 mm 0.00 in0.0 mm
05:40 AM 51.1°F10.6°C 42.7°F5.9°C 73% 2.2 mph E3.5 kmh E 4.5 mph7.2 kmh 30.11 in1019.6 mb 0.00 in0.0 mm 0.00 in0.0 mm 0.00 in0.0 mm
05:50 AM 51.1°F10.6°C 42.7°F5.9°C 73% 3.1 mph E5.0 kmh E 4.5 mph7.2 kmh 30.10 in1019.3 mb 0.00 in0.0 mm 0.00 in0.0 mm 0.00 in0.0 mm
06:00 AM 51.1°F10.6°C 42.7°F5.9°C 73% 2.2 mph NE3.5 kmh NE 5.4 mph8.7 kmh 30.11 in1019.6 mb 0.00 in0.0 mm 0.00 in0.0 mm 0.00 in0.0 mm
06:10 AM 51.1°F10.6°C 42.7°F5.9°C 73% 3.8 mph E6.1 kmh E 4.5 mph7.2 kmh 30.09 in1019.0 mb 0.00 in0.0 mm 0.00 in0.0 mm 0.00 in0.0 mm
06:20 AM 51.3°F10.7°C 42.9°F6.1°C 73% 3.1 mph E5.0 kmh E 6.0 mph9.7 kmh 30.09 in1019.0 mb 0.00 in0.0 mm 0.00 in0.0 mm 0.00 in0.0 mm
06:30 AM 51.8°F11.0°C 43.1°F6.2°C 72% 3.8 mph ENE6.1 kmh ENE 5.4 mph8.7 kmh 30.08 in1018.6 mb 0.00 in0.0 mm 0.00 in0.0 mm 0.00 in0.0 mm
06:40 AM 52.2°F11.2°C 43.4°F6.3°C 72% 3.8 mph E6.1 kmh E 6.0 mph9.7 kmh 30.07 in1018.3 mb 0.00 in0.0 mm 0.00 in0.0 mm 0.00 in0.0 mm
06:50 AM 52.5°F11.4°C 43.8°F6.6°C 72% 3.1 mph E5.0 kmh E 5.4 mph8.7 kmh 30.08 in1018.6 mb 0.00 in0.0 mm 0.00 in0.0 mm 0.00 in0.0 mm
07:00 AM 53.1°F11.7°C 43.9°F6.6°C 71% 2.2 mph E3.5 kmh E 4.5 mph7.2 kmh 30.07 in1018.3 mb 0.00 in0.0 mm 0.00 in0.0 mm 0.00 in0.0 mm
07:10 AM 53.6°F12.0°C 44.4°F6.9°C 71% 3.1 mph E5.0 kmh E 4.5 mph7.2 kmh 30.07 in1018.3 mb 0.00 in0.0 mm 0.00 in0.0 mm 0.00 in0.0 mm
07:20 AM 54.0°F12.2°C 44.8°F7.1°C 71% 4.5 mph E7.2 kmh E 6.0 mph9.7 kmh 30.05 in1017.6 mb 0.00 in0.0 mm 0.00 in0.0 mm 0.00 in0.0 mm
07:30 AM 54.5°F12.5°C 43.8°F6.6°C 67% 3.1 mph E5.0 kmh E 6.9 mph11.1 kmh 30.05 in1017.6 mb 0.00 in0.0 mm 0.00 in0.0 mm 0.00 in0.0 mm
07:40 AM 54.9°F12.7°C 43.7°F6.5°C 66% 3.8 mph E6.1 kmh E 6.9 mph11.1 kmh 30.04 in1017.3 mb 0.00 in0.0 mm 0.00 in0.0 mm 0.00 in0.0 mm
07:50 AM 54.9°F12.7°C 44.1°F6.7°C 67% 3.1 mph ENE5.0 kmh ENE 6.0 mph9.7 kmh 30.04 in1017.3 mb 0.00 in0.0 mm 0.00 in0.0 mm 0.00 in0.0 mm
08:00 AM 55.2°F12.9°C 44.5°F6.9°C 67% 3.1 mph E5.0 kmh E 6.0 mph9.7 kmh 30.04 in1017.3 mb 0.00 in0.0 mm 0.00 in0.0 mm 0.00 in0.0 mm
08:10 AM 55.8°F13.2°C 45.0°F7.2°C 67% 3.8 mph NE6.1 kmh NE 6.0 mph9.7 kmh 30.04 in1017.3 mb 0.00 in0.0 mm 0.00 in0.0 mm 0.00 in0.0 mm
08:20 AM 56.1°F13.4°C 44.9°F7.2°C 66% 3.8 mph ENE6.1 kmh ENE 8.3 mph13.4 kmh 30.02 in1016.6 mb 0.00 in0.0 mm 0.00 in0.0 mm 0.00 in0.0 mm
08:30 AM 56.7°F13.7°C 45.4°F7.4°C 66% 3.1 mph E5.0 kmh E 6.9 mph11.1 kmh 30.02 in1016.6 mb 0.00 in0.0 mm 0.00 in0.0 mm 0.00 in0.0 mm
08:40 AM 57.4°F14.1°C 45.7°F7.6°C 65% 3.1 mph E5.0 kmh E 5.4 mph8.7 kmh 30.01 in1016.3 mb 0.00 in0.0 mm 0.00 in0.0 mm 0.00 in0.0 mm
08:50 AM 59.4°F15.2°C 47.2°F8.4°C 64% 3.8 mph E6.1 kmh E 5.4 mph8.7 kmh 30.01 in1016.3 mb 0.00 in0.0 mm 0.00 in0.0 mm 0.00 in0.0 mm
09:00 AM 61.5°F16.4°C 48.4°F9.1°C 62% 2.2 mph E3.5 kmh E 5.4 mph8.7 kmh 30.01 in1016.3 mb 0.00 in0.0 mm 0.00 in0.0 mm 0.00 in0.0 mm
09:10 AM 63.1°F17.3°C 49.5°F9.7°C 61% 2.2 mph E3.5 kmh E 4.5 mph7.2 kmh 30.01 in1016.3 mb 0.00 in0.0 mm 0.00 in0.0 mm 0.00 in0.0 mm
09:20 AM 64.8°F18.2°C 47.7°F8.7°C 54% 3.1 mph E5.0 kmh E 5.4 mph8.7 kmh 30.00 in1015.9 mb 0.00 in0.0 mm 0.00 in0.0 mm 0.00 in0.0 mm
09:30 AM 61.7°F16.5°C 46.8°F8.2°C 58% 2.2 mph E3.5 kmh E 6.0 mph9.7 kmh 29.99 in1015.6 mb 0.00 in0.0 mm 0.00 in0.0 mm 0.00 in0.0 mm
09:40 AM 62.4°F16.9°C 48.8°F9.3°C 61% 1.6 mph E2.6 kmh E 8.3 mph13.4 kmh 29.99 in1015.6 mb 0.00 in0.0 mm 0.00 in0.0 mm 0.00 in0.0 mm
09:50 AM 66.7°F19.3°C 49.6°F9.8°C 54% 1.6 mph ENE2.6 kmh ENE 6.0 mph9.7 kmh 29.99 in1015.6 mb 0.00 in0.0 mm 0.00 in0.0 mm 0.00 in0.0 mm
10:00 AM 66.2°F19.0°C 48.1°F8.9°C 52% 2.2 mph ESE3.5 kmh ESE 5.4 mph8.7 kmh 29.98 in1015.2 mb 0.00 in0.0 mm 0.00 in0.0 mm 0.00 in0.0 mm
10:10 AM 65.8°F18.8°C 48.3°F9.1°C 53% 2.2 mph ESE3.5 kmh ESE 5.4 mph8.7 kmh 29.99 in1015.6 mb 0.00 in0.0 mm 0.00 in0.0 mm 0.00 in0.0 mm
10:20 AM 64.9°F18.3°C 48.4°F9.1°C 55% 1.6 mph E2.6 kmh E 4.5 mph7.2 kmh 29.97 in1014.9 mb 0.00 in0.0 mm 0.00 in0.0 mm 0.00 in0.0 mm
10:30 AM 65.7°F18.7°C 48.6°F9.2°C 54% 2.2 mph E3.5 kmh E 5.4 mph8.7 kmh 29.96 in1014.6 mb 0.00 in0.0 mm 0.00 in0.0 mm 0.00 in0.0 mm
10:40 AM 66.2°F19.0°C 48.6°F9.2°C 53% 2.2 mph E3.5 kmh E 6.0 mph9.7 kmh 29.96 in1014.6 mb 0.00 in0.0 mm 0.00 in0.0 mm 0.00 in0.0 mm
10:50 AM 66.6°F19.2°C 48.9°F9.4°C 53% 2.2 mph S3.5 kmh S 5.4 mph8.7 kmh 29.96 in1014.6 mb 0.00 in0.0 mm 0.00 in0.0 mm 0.00 in0.0 mm
11:00 AM 68.4°F20.2°C 50.1°F10.1°C 52% 2.2 mph SSE3.5 kmh SSE 5.4 mph8.7 kmh 29.95 in1014.2 mb 0.00 in0.0 mm 0.00 in0.0 mm 0.00 in0.0 mm
11:10 AM 69.6°F20.9°C 49.6°F9.8°C 49% 3.1 mph SSE5.0 kmh SSE 6.0 mph9.7 kmh 29.93 in1013.5 mb 0.00 in0.0 mm 0.00 in0.0 mm 0.00 in0.0 mm
11:20 AM 70.3°F21.3°C 49.2°F9.6°C 47% 4.5 mph SE7.2 kmh SE 6.9 mph11.1 kmh 29.93 in1013.5 mb 0.00 in0.0 mm 0.00 in0.0 mm 0.00 in0.0 mm
11:30 AM 70.9°F21.6°C 48.5°F9.2°C 45% 2.2 mph E3.5 kmh E 6.0 mph9.7 kmh 29.92 in1013.2 mb 0.00 in0.0 mm 0.00 in0.0 mm 0.00 in0.0 mm
11:40 AM 70.2°F21.2°C 47.9°F8.8°C 45% 3.1 mph E5.0 kmh E 5.4 mph8.7 kmh 29.93 in1013.5 mb 0.00 in0.0 mm 0.00 in0.0 mm 0.00 in0.0 mm
11:50 AM 71.1°F21.7°C 46.8°F8.2°C 42% 3.1 mph ENE5.0 kmh ENE 6.0 mph9.7 kmh 29.92 in1013.2 mb 0.00 in0.0 mm 0.00 in0.0 mm 0.00 in0.0 mm
12:00 PM 72.0°F22.2°C 47.0°F8.3°C 41% 3.1 mph W5.0 kmh W 6.0 mph9.7 kmh 29.92 in1013.2 mb 0.00 in0.0 mm 0.00 in0.0 mm 0.00 in0.0 mm
12:10 PM 71.2°F21.8°C 45.7°F7.6°C 40% 2.2 mph ESE3.5 kmh ESE 8.3 mph13.4 kmh 29.92 in1013.2 mb 0.02 in0.5 mm 0.12 in3.0 mm 0.02 in0.5 mm
12:20 PM 71.8°F22.1°C 46.2°F7.9°C 40% 3.1 mph ENE5.0 kmh ENE 6.9 mph11.1 kmh 29.92 in1013.2 mb 0.06 in1.5 mm 0.24 in6.1 mm 0.06 in1.5 mm
12:30 PM 71.2°F21.8°C 45.7°F7.6°C 40% 3.8 mph NE6.1 kmh NE 8.3 mph13.4 kmh 29.91 in1012.9 mb 0.06 in1.5 mm 0.00 in0.0 mm 0.06 in1.5 mm
12:40 PM 72.5°F22.5°C 43.3°F6.3°C 35% 2.2 mph E3.5 kmh E 7.6 mph12.2 kmh 29.92 in1013.2 mb 0.06 in1.5 mm 0.00 in0.0 mm 0.06 in1.5 mm
12:50 PM 72.7°F22.6°C 40.3°F4.6°C 31% 4.5 mph WSW7.2 kmh WSW 7.6 mph12.2 kmh 29.91 in1012.9 mb 0.06 in1.5 mm 0.00 in0.0 mm 0.06 in1.5 mm
01:00 PM 71.2°F21.8°C 42.2°F5.7°C 35% 1.6 mph SSE2.6 kmh SSE 7.6 mph12.2 kmh 29.90 in1012.5 mb 0.06 in1.5 mm 0.00 in0.0 mm 0.06 in1.5 mm
01:10 PM 69.3°F20.7°C 45.2°F7.3°C 42% 3.1 mph NW5.0 kmh NW 5.4 mph8.7 kmh 29.90 in1012.5 mb 0.04 in1.0 mm 0.00 in0.0 mm 0.06 in1.5 mm
01:20 PM 67.5°F19.7°C 42.3°F5.7°C 40% 2.2 mph E3.5 kmh E 9.2 mph14.8 kmh 29.90 in1012.5 mb 0.00 in0.0 mm 0.00 in0.0 mm 0.06 in1.5 mm
01:30 PM 66.0°F18.9°C 41.7°F5.4°C 41% 1.6 mph W2.6 kmh W 6.0 mph9.7 kmh 29.90 in1012.5 mb 0.00 in0.0 mm 0.00 in0.0 mm 0.06 in1.5 mm
01:40 PM 65.3°F18.5°C 40.4°F4.7°C 40% 3.1 mph W5.0 kmh W 9.2 mph14.8 kmh 29.90 in1012.5 mb 0.00 in0.0 mm 0.00 in0.0 mm 0.06 in1.5 mm
01:50 PM 64.8°F18.2°C 40.5°F4.7°C 41% 1.6 mph SW2.6 kmh SW 6.0 mph9.7 kmh 29.90 in1012.5 mb 0.00 in0.0 mm 0.00 in0.0 mm 0.06 in1.5 mm
02:00 PM 64.6°F18.1°C 41.6°F5.3°C 43% 5.4 mph SSW8.7 kmh SSW 13.0 mph20.9 kmh 29.90 in1012.5 mb 0.00 in0.0 mm 0.00 in0.0 mm 0.06 in1.5 mm
02:10 PM 64.0°F17.8°C 45.0°F7.2°C 50% 1.6 mph W2.6 kmh W 13.0 mph20.9 kmh 29.91 in1012.9 mb 0.00 in0.0 mm 0.00 in0.0 mm 0.06 in1.5 mm
02:20 PM 61.5°F16.4°C 48.8°F9.3°C 63% 2.2 mph NE3.5 kmh NE 14.5 mph23.3 kmh 29.91 in1012.9 mb 0.00 in0.0 mm 0.00 in0.0 mm 0.06 in1.5 mm
02:30 PM 59.7°F15.4°C 49.9°F9.9°C 70% 3.8 mph E6.1 kmh E 6.0 mph9.7 kmh 29.91 in1012.9 mb 0.00 in0.0 mm 0.00 in0.0 mm 0.06 in1.5 mm
02:40 PM 59.2°F15.1°C 50.5°F10.3°C 73% 3.1 mph NNE5.0 kmh NNE 12.1 mph19.5 kmh 29.91 in1012.9 mb 0.00 in0.0 mm 0.00 in0.0 mm 0.06 in1.5 mm
02:50 PM 59.4°F15.2°C 50.7°F10.4°C 73% 0.7 mph NNE1.1 kmh NNE 6.0 mph9.7 kmh 29.91 in1012.9 mb 0.00 in0.0 mm 0.00 in0.0 mm 0.06 in1.5 mm
03:00 PM 59.5°F15.3°C 50.9°F10.5°C 73% 3.1 mph WNW5.0 kmh WNW 7.6 mph12.2 kmh 29.91 in1012.9 mb 0.00 in0.0 mm 0.00 in0.0 mm 0.06 in1.5 mm
03:10 PM 59.5°F15.3°C 50.5°F10.3°C 72% 6.9 mph WSW11.1 kmh WSW 12.1 mph19.5 kmh 29.91 in1012.9 mb 0.00 in0.0 mm 0.00 in0.0 mm 0.06 in1.5 mm
03:20 PM 59.5°F15.3°C 50.9°F10.5°C 73% 3.1 mph NE5.0 kmh NE 12.1 mph19.5 kmh 29.90 in1012.5 mb 0.00 in0.0 mm 0.00 in0.0 mm 0.06 in1.5 mm
03:30 PM 59.7°F15.4°C 51.1°F10.6°C 73% 3.1 mph WSW5.0 kmh WSW 6.9 mph11.1 kmh 29.90 in1012.5 mb 0.00 in0.0 mm 0.00 in0.0 mm 0.06 in1.5 mm
03:40 PM 59.7°F15.4°C 51.4°F10.8°C 74% 2.2 mph ESE3.5 kmh ESE 8.3 mph13.4 kmh 29.90 in1012.5 mb 0.00 in0.0 mm 0.00 in0.0 mm 0.06 in1.5 mm
03:50 PM 59.4°F15.2°C 51.8°F11.0°C 76% 3.8 mph NW6.1 kmh NW 6.0 mph9.7 kmh 29.90 in1012.5 mb 0.00 in0.0 mm 0.00 in0.0 mm 0.06 in1.5 mm
04:00 PM 59.2°F15.1°C 52.3°F11.3°C 78% 4.5 mph ENE7.2 kmh ENE 9.2 mph14.8 kmh 29.89 in1012.2 mb 0.00 in0.0 mm 0.00 in0.0 mm 0.06 in1.5 mm
04:10 PM 59.0°F15.0°C 52.9°F11.6°C 80% 3.1 mph ENE5.0 kmh ENE 7.6 mph12.2 kmh 29.89 in1012.2 mb 0.00 in0.0 mm 0.00 in0.0 mm 0.06 in1.5 mm
04:20 PM 59.9°F15.5°C 53.0°F11.7°C 78% 3.1 mph W5.0 kmh W 7.6 mph12.2 kmh 29.89 in1012.2 mb 0.00 in0.0 mm 0.00 in0.0 mm 0.06 in1.5 mm
04:30 PM 60.4°F15.8°C 52.9°F11.6°C 76% 2.2 mph NNW3.5 kmh NNW 9.2 mph14.8 kmh 29.89 in1012.2 mb 0.00 in0.0 mm 0.00 in0.0 mm 0.06 in1.5 mm
04:40 PM 60.3°F15.7°C 53.4°F11.9°C 78% 3.1 mph SW5.0 kmh SW 8.3 mph13.4 kmh 29.88 in1011.9 mb 0.00 in0.0 mm 0.00 in0.0 mm 0.06 in1.5 mm
04:50 PM 59.4°F15.2°C 53.2°F11.8°C 80% 2.2 mph SE3.5 kmh SE 4.5 mph7.2 kmh 29.88 in1011.9 mb 0.00 in0.0 mm 0.00 in0.0 mm 0.06 in1.5 mm
05:00 PM 59.0°F15.0°C 53.2°F11.8°C 81% 3.1 mph E5.0 kmh E 4.5 mph7.2 kmh 29.88 in1011.9 mb 0.00 in0.0 mm 0.00 in0.0 mm 0.06 in1.5 mm
05:10 PM 58.8°F14.9°C 53.7°F12.1°C 83% 2.2 mph SE3.5 kmh SE 3.8 mph6.1 kmh 29.88 in1011.9 mb 0.00 in0.0 mm 0.00 in0.0 mm 0.06 in1.5 mm
05:20 PM 59.2°F15.1°C 54.4°F12.4°C 84% 4.5 mph WSW7.2 kmh WSW 8.3 mph13.4 kmh 29.89 in1012.2 mb 0.00 in0.0 mm 0.00 in0.0 mm 0.06 in1.5 mm
05:30 PM 59.9°F15.5°C 55.1°F12.8°C 84% 3.1 mph NNW5.0 kmh NNW 8.3 mph13.4 kmh 29.88 in1011.9 mb 0.00 in0.0 mm 0.00 in0.0 mm 0.06 in1.5 mm
05:40 PM 60.3°F15.7°C 55.4°F13.0°C 84% 4.5 mph SW7.2 kmh SW 7.6 mph12.2 kmh 29.87 in1011.5 mb 0.00 in0.0 mm 0.00 in0.0 mm 0.06 in1.5 mm
05:50 PM 60.3°F15.7°C 55.1°F12.8°C 83% 3.1 mph NE5.0 kmh NE 6.0 mph9.7 kmh 29.88 in1011.9 mb 0.00 in0.0 mm 0.00 in0.0 mm 0.06 in1.5 mm
06:00 PM 60.4°F15.8°C 54.9°F12.7°C 82% 1.6 mph SW2.6 kmh SW 9.8 mph15.8 kmh 29.89 in1012.2 mb 0.00 in0.0 mm 0.00 in0.0 mm 0.06 in1.5 mm
06:10 PM 60.3°F15.7°C 54.1°F12.3°C 80% 1.6 mph SE2.6 kmh SE 6.0 mph9.7 kmh 29.89 in1012.2 mb 0.00 in0.0 mm 0.00 in0.0 mm 0.06 in1.5 mm
06:20 PM 60.3°F15.7°C 53.0°F11.7°C 77% 2.2 mph W3.5 kmh W 5.4 mph8.7 kmh 29.88 in1011.9 mb 0.00 in0.0 mm 0.00 in0.0 mm 0.06 in1.5 mm
06:30 PM 60.1°F15.6°C 52.5°F11.4°C 76% 1.6 mph SE2.6 kmh SE 6.0 mph9.7 kmh 29.88 in1011.9 mb 0.00 in0.0 mm 0.00 in0.0 mm 0.06 in1.5 mm
06:40 PM 59.9°F15.5°C 52.0°F11.1°C 75% 0.7 mph SW1.1 kmh SW 8.3 mph13.4 kmh 29.89 in1012.2 mb 0.00 in0.0 mm 0.00 in0.0 mm 0.06 in1.5 mm
06:50 PM 59.7°F15.4°C 51.4°F10.8°C 74% 3.1 mph SSE5.0 kmh SSE 6.0 mph9.7 kmh 29.89 in1012.2 mb 0.00 in0.0 mm 0.00 in0.0 mm 0.06 in1.5 mm
07:00 PM 59.4°F15.2°C 50.7°F10.4°C 73% 2.2 mph WSW3.5 kmh WSW 4.5 mph7.2 kmh 29.89 in1012.2 mb 0.00 in0.0 mm 0.00 in0.0 mm 0.06 in1.5 mm
07:10 PM 59.2°F15.1°C 50.5°F10.3°C 73% 1.6 mph SSE2.6 kmh SSE 4.5 mph7.2 kmh 29.89 in1012.2 mb 0.00 in0.0 mm 0.00 in0.0 mm 0.06 in1.5 mm
07:20 PM 59.2°F15.1°C 50.5°F10.3°C 73% 2.2 mph SW3.5 kmh SW 6.0 mph9.7 kmh 29.89 in1012.2 mb 0.00 in0.0 mm 0.00 in0.0 mm 0.06 in1.5 mm
07:30 PM 59.0°F15.0°C 50.0°F10.0°C 72% 3.1 mph S5.0 kmh S 6.9 mph11.1 kmh 29.88 in1011.9 mb 0.00 in0.0 mm 0.00 in0.0 mm 0.06 in1.5 mm
07:40 PM 58.8°F14.9°C 49.8°F9.9°C 72% 1.6 mph S2.6 kmh S 6.9 mph11.1 kmh 29.88 in1011.9 mb 0.00 in0.0 mm 0.00 in0.0 mm 0.06 in1.5 mm
07:50 PM 58.8°F14.9°C 50.2°F10.1°C 73% 1.6 mph ESE2.6 kmh ESE 6.9 mph11.1 kmh 29.87 in1011.5 mb 0.00 in0.0 mm 0.00 in0.0 mm 0.06 in1.5 mm
08:00 PM 58.6°F14.8°C 50.0°F10.0°C 73% 1.6 mph WSW2.6 kmh WSW 4.5 mph7.2 kmh 29.87 in1011.5 mb 0.00 in0.0 mm 0.00 in0.0 mm 0.06 in1.5 mm
08:10 PM 58.6°F14.8°C 50.4°F10.2°C 74% 1.6 mph NE2.6 kmh NE 6.9 mph11.1 kmh 29.86 in1011.2 mb 0.00 in0.0 mm 0.00 in0.0 mm 0.06 in1.5 mm
08:20 PM 58.6°F14.8°C 50.8°F10.4°C 75% 1.6 mph N2.6 kmh N 6.0 mph9.7 kmh 29.87 in1011.5 mb 0.00 in0.0 mm 0.00 in0.0 mm 0.06 in1.5 mm
08:30 PM 58.8°F14.9°C 51.3°F10.7°C 76% 3.1 mph SW5.0 kmh SW 5.4 mph8.7 kmh 29.86 in1011.2 mb 0.00 in0.0 mm 0.00 in0.0 mm 0.06 in1.5 mm
08:40 PM 59.2°F15.1°C 51.6°F10.9°C 76% 1.6 mph N2.6 kmh N 9.2 mph14.8 kmh 29.87 in1011.5 mb 0.00 in0.0 mm 0.00 in0.0 mm 0.06 in1.5 mm
08:50 PM 59.2°F15.1°C 50.9°F10.5°C 74% 2.2 mph SSE3.5 kmh SSE 7.6 mph12.2 kmh 29.86 in1011.2 mb 0.00 in0.0 mm 0.00 in0.0 mm 0.06 in1.5 mm
09:00 PM 59.0°F15.0°C 50.4°F10.2°C 73% 2.2 mph SE3.5 kmh SE 5.4 mph8.7 kmh 29.87 in1011.5 mb 0.00 in0.0 mm 0.00 in0.0 mm 0.06 in1.5 mm
09:10 PM 59.0°F15.0°C 50.4°F10.2°C 73% 0.7 mph SW1.1 kmh SW 4.5 mph7.2 kmh 29.86 in1011.2 mb 0.00 in0.0 mm 0.00 in0.0 mm 0.06 in1.5 mm
09:20 PM 58.6°F14.8°C 50.4°F10.2°C 74% 1.6 mph S2.6 kmh S 4.5 mph7.2 kmh 29.87 in1011.5 mb 0.00 in0.0 mm 0.00 in0.0 mm 0.06 in1.5 mm
09:30 PM 58.6°F14.8°C 49.3°F9.6°C 71% 1.6 mph W2.6 kmh W 8.3 mph13.4 kmh 29.87 in1011.5 mb 0.00 in0.0 mm 0.00 in0.0 mm 0.06 in1.5 mm
09:40 PM 58.5°F14.7°C 47.9°F8.8°C 68% 1.6 mph SW2.6 kmh SW 6.9 mph11.1 kmh 29.87 in1011.5 mb 0.00 in0.0 mm 0.00 in0.0 mm 0.06 in1.5 mm
09:50 PM 58.1°F14.5°C 47.6°F8.7°C 68% 3.1 mph WSW5.0 kmh WSW 5.4 mph8.7 kmh 29.87 in1011.5 mb 0.00 in0.0 mm 0.00 in0.0 mm 0.06 in1.5 mm
10:00 PM 57.9°F14.4°C 47.8°F8.8°C 69% 2.2 mph W3.5 kmh W 5.4 mph8.7 kmh 29.88 in1011.9 mb 0.00 in0.0 mm 0.00 in0.0 mm 0.06 in1.5 mm
10:10 PM 57.7°F14.3°C 46.5°F8.1°C 66% 3.1 mph SW5.0 kmh SW 8.3 mph13.4 kmh 29.88 in1011.9 mb 0.00 in0.0 mm 0.00 in0.0 mm 0.06 in1.5 mm
10:20 PM 57.2°F14.0°C 46.0°F7.8°C 66% 3.1 mph SW5.0 kmh SW 6.9 mph11.1 kmh 29.88 in1011.9 mb 0.00 in0.0 mm 0.00 in0.0 mm 0.06 in1.5 mm
10:30 PM 57.2°F14.0°C 46.0°F7.8°C 66% 2.2 mph SW3.5 kmh SW 7.6 mph12.2 kmh 29.87 in1011.5 mb 0.00 in0.0 mm 0.00 in0.0 mm 0.06 in1.5 mm
10:40 PM 56.8°F13.8°C 46.0°F7.8°C 67% 1.6 mph SW2.6 kmh SW 6.9 mph11.1 kmh 29.88 in1011.9 mb 0.00 in0.0 mm 0.00 in0.0 mm 0.06 in1.5 mm
10:50 PM 56.8°F13.8°C 46.4°F8.0°C 68% 3.8 mph W6.1 kmh W 7.6 mph12.2 kmh 29.88 in1011.9 mb 0.00 in0.0 mm 0.00 in0.0 mm 0.06 in1.5 mm
11:00 PM 56.7°F13.7°C 46.2°F7.9°C 68% 3.1 mph SE5.0 kmh SE 5.4 mph8.7 kmh 29.88 in1011.9 mb 0.00 in0.0 mm 0.00 in0.0 mm 0.06 in1.5 mm
11:10 PM 56.8°F13.8°C 45.6°F7.6°C 66% 2.2 mph SE3.5 kmh SE 5.4 mph8.7 kmh 29.87 in1011.5 mb 0.00 in0.0 mm 0.00 in0.0 mm 0.06 in1.5 mm
11:20 PM 56.7°F13.7°C 45.4°F7.4°C 66% 2.2 mph S3.5 kmh S 5.4 mph8.7 kmh 29.88 in1011.9 mb 0.00 in0.0 mm 0.00 in0.0 mm 0.06 in1.5 mm
11:30 PM 56.1°F13.4°C 45.7°F7.6°C 68% 3.8 mph WSW6.1 kmh WSW 7.6 mph12.2 kmh 29.87 in1011.5 mb 0.00 in0.0 mm 0.00 in0.0 mm 0.06 in1.5 mm
11:40 PM 56.1°F13.4°C 46.1°F7.8°C 69% 1.6 mph S2.6 kmh S 7.6 mph12.2 kmh 29.88 in1011.9 mb 0.00 in0.0 mm 0.00 in0.0 mm 0.06 in1.5 mm
11:50 PM 56.1°F13.4°C 44.1°F6.7°C 64% 3.8 mph S6.1 kmh S 6.9 mph11.1 kmh 29.88 in1011.9 mb 0.00 in0.0 mm 0.00 in0.0 mm 0.06 in1.5 mm